sensor_id;sensor_type;location;lat;lon;timestamp;P1;durP1;ratioP1;P2;durP2;ratioP2
75504;SDS011;64085;54.974;73.410;2023-03-01T00:00:38;3.60;;;2.40;;
75504;SDS011;64085;54.974;73.410;2023-03-01T00:03:04;4.50;;;2.90;;
75504;SDS011;64085;54.974;73.410;2023-03-01T00:05:30;4.75;;;2.70;;
75504;SDS011;64085;54.974;73.410;2023-03-01T00:07:57;5.72;;;2.92;;
75504;SDS011;64085;54.974;73.410;2023-03-01T00:10:23;5.63;;;2.75;;
75504;SDS011;64085;54.974;73.410;2023-03-01T00:12:48;6.25;;;3.45;;
75504;SDS011;64085;54.974;73.410;2023-03-01T00:15:14;4.90;;;2.70;;
75504;SDS011;64085;54.974;73.410;2023-03-01T00:17:40;7.03;;;3.65;;
75504;SDS011;64085;54.974;73.410;2023-03-01T00:20:05;6.65;;;3.28;;
75504;SDS011;64085;54.974;73.410;2023-03-01T00:22:35;7.13;;;4.28;;
75504;SDS011;64085;54.974;73.410;2023-03-01T00:25:02;7.70;;;4.15;;
75504;SDS011;64085;54.974;73.410;2023-03-01T00:27:28;5.80;;;3.42;;
75504;SDS011;64085;54.974;73.410;2023-03-01T00:29:54;4.63;;;3.28;;
75504;SDS011;64085;54.974;73.410;2023-03-01T00:32:19;6.93;;;3.78;;
75504;SDS011;64085;54.974;73.410;2023-03-01T00:34:45;6.75;;;3.65;;
75504;SDS011;64085;54.974;73.410;2023-03-01T00:37:19;4.63;;;2.10;;
75504;SDS011;64085;54.974;73.410;2023-03-01T00:39:49;6.75;;;2.92;;
75504;SDS011;64085;54.974;73.410;2023-03-01T00:42:15;3.63;;;2.83;;
75504;SDS011;64085;54.974;73.410;2023-03-01T00:44:42;4.32;;;3.35;;
75504;SDS011;64085;54.974;73.410;2023-03-01T00:47:08;6.50;;;3.50;;
75504;SDS011;64085;54.974;73.410;2023-03-01T00:49:34;6.28;;;3.30;;
75504;SDS011;64085;54.974;73.410;2023-03-01T00:52:00;4.10;;;2.95;;
75504;SDS011;64085;54.974;73.410;2023-03-01T00:54:26;4.93;;;2.42;;
75504;SDS011;64085;54.974;73.410;2023-03-01T00:56:51;4.38;;;2.58;;
75504;SDS011;64085;54.974;73.410;2023-03-01T00:59:17;6.10;;;3.78;;
75504;SDS011;64085;54.974;73.410;2023-03-01T01:01:43;5.15;;;3.03;;
75504;SDS011;64085;54.974;73.410;2023-03-01T01:04:10;6.78;;;4.05;;
75504;SDS011;64085;54.974;73.410;2023-03-01T01:06:38;5.88;;;3.75;;
75504;SDS011;64085;54.974;73.410;2023-03-01T01:09:07;5.43;;;2.92;;
75504;SDS011;64085;54.974;73.410;2023-03-01T01:11:34;5.22;;;2.78;;
75504;SDS011;64085;54.974;73.410;2023-03-01T01:14:01;10.77;;;5.05;;
75504;SDS011;64085;54.974;73.410;2023-03-01T01:16:27;7.65;;;4.03;;
75504;SDS011;64085;54.974;73.410;2023-03-01T01:18:54;10.20;;;5.55;;
75504;SDS011;64085;54.974;73.410;2023-03-01T01:21:22;5.10;;;3.60;;
75504;SDS011;64085;54.974;73.410;2023-03-01T01:23:49;6.47;;;3.28;;
75504;SDS011;64085;54.974;73.410;2023-03-01T01:26:16;9.30;;;4.93;;
75504;SDS011;64085;54.974;73.410;2023-03-01T01:28:49;12.10;;;4.78;;
75504;SDS011;64085;54.974;73.410;2023-03-01T01:31:16;4.45;;;2.75;;
75504;SDS011;64085;54.974;73.410;2023-03-01T01:33:43;11.73;;;6.53;;
75504;SDS011;64085;54.974;73.410;2023-03-01T01:36:09;10.27;;;5.90;;
75504;SDS011;64085;54.974;73.410;2023-03-01T01:38:35;11.98;;;7.43;;
75504;SDS011;64085;54.974;73.410;2023-03-01T01:41:02;8.68;;;4.78;;
75504;SDS011;64085;54.974;73.410;2023-03-01T01:43:29;11.80;;;5.50;;
75504;SDS011;64085;54.974;73.410;2023-03-01T01:49:00;10.05;;;6.10;;
75504;SDS011;64085;54.974;73.410;2023-03-01T01:51:30;14.82;;;5.55;;
75504;SDS011;64085;54.974;73.410;2023-03-01T01:54:05;11.77;;;5.28;;
75504;SDS011;64085;54.974;73.410;2023-03-01T01:56:35;9.45;;;4.28;;
75504;SDS011;64085;54.974;73.410;2023-03-01T01:59:04;4.70;;;2.85;;
75504;SDS011;64085;54.974;73.410;2023-03-01T02:01:30;11.23;;;7.22;;
75504;SDS011;64085;54.974;73.410;2023-03-01T02:03:55;8.45;;;4.57;;
75504;SDS011;64085;54.974;73.410;2023-03-01T02:06:25;10.60;;;5.00;;
75504;SDS011;64085;54.974;73.410;2023-03-01T02:08:55;12.25;;;5.68;;
75504;SDS011;64085;54.974;73.410;2023-03-01T02:11:24;2.75;;;2.25;;
75504;SDS011;64085;54.974;73.410;2023-03-01T02:13:51;11.00;;;6.10;;
75504;SDS011;64085;54.974;73.410;2023-03-01T02:16:18;10.60;;;5.00;;
75504;SDS011;64085;54.974;73.410;2023-03-01T02:18:44;11.70;;;6.53;;
75504;SDS011;64085;54.974;73.410;2023-03-01T02:21:29;8.90;;;4.97;;
75504;SDS011;64085;54.974;73.410;2023-03-01T02:26:54;10.98;;;6.20;;
75504;SDS011;64085;54.974;73.410;2023-03-01T02:29:22;11.68;;;5.55;;
75504;SDS011;64085;54.974;73.410;2023-03-01T02:31:49;16.77;;;7.90;;
75504;SDS011;64085;54.974;73.410;2023-03-01T02:34:20;4.82;;;4.00;;
75504;SDS011;64085;54.974;73.410;2023-03-01T02:39:26;6.35;;;3.72;;
75504;SDS011;64085;54.974;73.410;2023-03-01T02:41:57;9.77;;;4.68;;
75504;SDS011;64085;54.974;73.410;2023-03-01T02:44:24;8.55;;;4.72;;
75504;SDS011;64085;54.974;73.410;2023-03-01T02:46:50;8.48;;;3.83;;
75504;SDS011;64085;54.974;73.410;2023-03-01T02:49:19;10.57;;;5.53;;
75504;SDS011;64085;54.974;73.410;2023-03-01T02:57:05;15.27;;;6.88;;
75504;SDS011;64085;54.974;73.410;2023-03-01T02:59:33;7.05;;;4.07;;
75504;SDS011;64085;54.974;73.410;2023-03-01T03:02:04;8.55;;;5.45;;
75504;SDS011;64085;54.974;73.410;2023-03-01T03:04:31;11.85;;;3.88;;
75504;SDS011;64085;54.974;73.410;2023-03-01T03:06:57;9.93;;;5.18;;
75504;SDS011;64085;54.974;73.410;2023-03-01T03:09:22;7.57;;;4.28;;
75504;SDS011;64085;54.974;73.410;2023-03-01T03:11:48;7.97;;;5.07;;
75504;SDS011;64085;54.974;73.410;2023-03-01T03:14:15;6.60;;;3.47;;
75504;SDS011;64085;54.974;73.410;2023-03-01T03:16:42;9.00;;;4.38;;
75504;SDS011;64085;54.974;73.410;2023-03-01T03:19:09;10.13;;;5.88;;
75504;SDS011;64085;54.974;73.410;2023-03-01T03:21:35;15.32;;;8.13;;
75504;SDS011;64085;54.974;73.410;2023-03-01T03:24:01;17.40;;;8.80;;
75504;SDS011;64085;54.974;73.410;2023-03-01T03:26:27;10.43;;;6.38;;
75504;SDS011;64085;54.974;73.410;2023-03-01T03:28:53;10.77;;;7.13;;
75504;SDS011;64085;54.974;73.410;2023-03-01T03:31:19;12.65;;;7.60;;
75504;SDS011;64085;54.974;73.410;2023-03-01T03:33:45;15.55;;;7.82;;
75504;SDS011;64085;54.974;73.410;2023-03-01T03:36:15;15.32;;;7.60;;
75504;SDS011;64085;54.974;73.410;2023-03-01T03:38:45;15.43;;;7.30;;
75504;SDS011;64085;54.974;73.410;2023-03-01T03:41:11;13.50;;;7.32;;
75504;SDS011;64085;54.974;73.410;2023-03-01T03:43:37;17.52;;;9.65;;
75504;SDS011;64085;54.974;73.410;2023-03-01T03:46:05;18.25;;;10.23;;
75504;SDS011;64085;54.974;73.410;2023-03-01T03:48:32;14.80;;;8.10;;
75504;SDS011;64085;54.974;73.410;2023-03-01T03:50:59;12.18;;;6.95;;
75504;SDS011;64085;54.974;73.410;2023-03-01T03:53:26;15.50;;;7.65;;
75504;SDS011;64085;54.974;73.410;2023-03-01T03:55:53;12.52;;;7.80;;
75504;SDS011;64085;54.974;73.410;2023-03-01T03:58:21;14.40;;;8.70;;
75504;SDS011;64085;54.974;73.410;2023-03-01T04:00:49;16.25;;;9.20;;
75504;SDS011;64085;54.974;73.410;2023-03-01T04:03:17;15.23;;;7.72;;
75504;SDS011;64085;54.974;73.410;2023-03-01T04:05:45;12.82;;;7.03;;
75504;SDS011;64085;54.974;73.410;2023-03-01T04:08:12;12.48;;;8.48;;
75504;SDS011;64085;54.974;73.410;2023-03-01T04:10:39;12.32;;;6.47;;
75504;SDS011;64085;54.974;73.410;2023-03-01T04:13:08;11.60;;;7.47;;
75504;SDS011;64085;54.974;73.410;2023-03-01T04:15:36;7.88;;;4.68;;
75504;SDS011;64085;54.974;73.410;2023-03-01T04:18:03;13.15;;;7.47;;
75504;SDS011;64085;54.974;73.410;2023-03-01T04:20:30;12.77;;;6.25;;
75504;SDS011;64085;54.974;73.410;2023-03-01T04:25:53;9.82;;;5.07;;
75504;SDS011;64085;54.974;73.410;2023-03-01T04:28:22;8.68;;;5.60;;
75504;SDS011;64085;54.974;73.410;2023-03-01T04:30:53;6.03;;;4.13;;
75504;SDS011;64085;54.974;73.410;2023-03-01T04:33:20;7.60;;;5.43;;
75504;SDS011;64085;54.974;73.410;2023-03-01T04:35:46;8.68;;;4.63;;
75504;SDS011;64085;54.974;73.410;2023-03-01T04:38:14;6.97;;;4.43;;
75504;SDS011;64085;54.974;73.410;2023-03-01T04:40:41;7.03;;;5.53;;
75504;SDS011;64085;54.974;73.410;2023-03-01T04:43:08;16.77;;;6.28;;
75504;SDS011;64085;54.974;73.410;2023-03-01T04:45:35;7.53;;;5.63;;
75504;SDS011;64085;54.974;73.410;2023-03-01T04:48:01;8.05;;;5.20;;
75504;SDS011;64085;54.974;73.410;2023-03-01T04:50:27;12.50;;;5.93;;
75504;SDS011;64085;54.974;73.410;2023-03-01T04:52:53;11.73;;;5.88;;
75504;SDS011;64085;54.974;73.410;2023-03-01T04:55:19;10.65;;;6.32;;
75504;SDS011;64085;54.974;73.410;2023-03-01T04:57:45;15.38;;;7.60;;
75504;SDS011;64085;54.974;73.410;2023-03-01T05:00:11;11.68;;;7.53;;
75504;SDS011;64085;54.974;73.410;2023-03-01T05:02:57;12.00;;;6.82;;
75504;SDS011;64085;54.974;73.410;2023-03-01T05:05:44;16.73;;;8.20;;
75504;SDS011;64085;54.974;73.410;2023-03-01T05:08:12;13.57;;;6.95;;
75504;SDS011;64085;54.974;73.410;2023-03-01T05:10:43;12.68;;;9.07;;
75504;SDS011;64085;54.974;73.410;2023-03-01T05:13:11;6.32;;;4.90;;
75504;SDS011;64085;54.974;73.410;2023-03-01T05:15:38;14.90;;;8.23;;
75504;SDS011;64085;54.974;73.410;2023-03-01T05:18:04;13.25;;;6.03;;
75504;SDS011;64085;54.974;73.410;2023-03-01T05:20:36;15.63;;;8.02;;
75504;SDS011;64085;54.974;73.410;2023-03-01T05:23:02;8.15;;;4.82;;
75504;SDS011;64085;54.974;73.410;2023-03-01T05:25:30;12.80;;;6.57;;
75504;SDS011;64085;54.974;73.410;2023-03-01T05:28:00;12.77;;;7.35;;
75504;SDS011;64085;54.974;73.410;2023-03-01T05:32:55;8.88;;;5.10;;
75504;SDS011;64085;54.974;73.410;2023-03-01T05:35:21;12.10;;;6.68;;
75504;SDS011;64085;54.974;73.410;2023-03-01T05:37:47;5.82;;;4.05;;
75504;SDS011;64085;54.974;73.410;2023-03-01T05:40:15;8.50;;;5.68;;
75504;SDS011;64085;54.974;73.410;2023-03-01T05:42:43;13.23;;;6.97;;
75504;SDS011;64085;54.974;73.410;2023-03-01T05:45:10;11.88;;;7.28;;
75504;SDS011;64085;54.974;73.410;2023-03-01T05:47:37;8.20;;;4.90;;
75504;SDS011;64085;54.974;73.410;2023-03-01T05:52:37;10.57;;;6.97;;
75504;SDS011;64085;54.974;73.410;2023-03-01T05:55:03;11.80;;;6.05;;
75504;SDS011;64085;54.974;73.410;2023-03-01T05:57:29;11.93;;;7.05;;
75504;SDS011;64085;54.974;73.410;2023-03-01T05:59:55;13.50;;;8.68;;
75504;SDS011;64085;54.974;73.410;2023-03-01T06:02:21;12.40;;;7.15;;
75504;SDS011;64085;54.974;73.410;2023-03-01T06:04:46;5.50;;;3.72;;
75504;SDS011;64085;54.974;73.410;2023-03-01T06:07:12;3.50;;;2.60;;
75504;SDS011;64085;54.974;73.410;2023-03-01T06:09:37;11.85;;;5.28;;
75504;SDS011;64085;54.974;73.410;2023-03-01T06:12:03;7.75;;;4.97;;
75504;SDS011;64085;54.974;73.410;2023-03-01T06:14:30;6.93;;;3.85;;
75504;SDS011;64085;54.974;73.410;2023-03-01T06:16:57;12.93;;;6.05;;
75504;SDS011;64085;54.974;73.410;2023-03-01T06:19:23;6.88;;;4.30;;
75504;SDS011;64085;54.974;73.410;2023-03-01T06:21:49;10.45;;;4.95;;
75504;SDS011;64085;54.974;73.410;2023-03-01T06:24:14;10.73;;;6.30;;
75504;SDS011;64085;54.974;73.410;2023-03-01T06:26:40;14.50;;;8.30;;
75504;SDS011;64085;54.974;73.410;2023-03-01T06:29:06;9.63;;;6.05;;
75504;SDS011;64085;54.974;73.410;2023-03-01T06:31:33;7.32;;;5.05;;
75504;SDS011;64085;54.974;73.410;2023-03-01T06:33:59;8.80;;;4.95;;
75504;SDS011;64085;54.974;73.410;2023-03-01T06:36:25;13.50;;;6.63;;
75504;SDS011;64085;54.974;73.410;2023-03-01T06:38:50;12.95;;;6.55;;
75504;SDS011;64085;54.974;73.410;2023-03-01T06:41:16;14.15;;;9.25;;
75504;SDS011;64085;54.974;73.410;2023-03-01T06:43:42;14.27;;;9.35;;
75504;SDS011;64085;54.974;73.410;2023-03-01T06:46:07;17.90;;;9.20;;
75504;SDS011;64085;54.974;73.410;2023-03-01T06:48:33;11.57;;;6.32;;
75504;SDS011;64085;54.974;73.410;2023-03-01T06:50:59;13.18;;;8.02;;
75504;SDS011;64085;54.974;73.410;2023-03-01T06:53:29;13.38;;;7.72;;
75504;SDS011;64085;54.974;73.410;2023-03-01T06:55:56;9.95;;;7.03;;
75504;SDS011;64085;54.974;73.410;2023-03-01T06:58:24;16.90;;;10.98;;
75504;SDS011;64085;54.974;73.410;2023-03-01T07:00:49;13.77;;;7.85;;
75504;SDS011;64085;54.974;73.410;2023-03-01T17:48:51;15.75;;;4.40;;
75504;SDS011;64085;54.974;73.410;2023-03-01T17:51:16;12.10;;;5.68;;
75504;SDS011;64085;54.974;73.410;2023-03-01T17:53:42;9.90;;;5.97;;
75504;SDS011;64085;54.974;73.410;2023-03-01T17:56:08;11.80;;;6.50;;
75504;SDS011;64085;54.974;73.410;2023-03-01T17:58:34;12.98;;;7.18;;
75504;SDS011;64085;54.974;73.410;2023-03-01T18:01:13;7.53;;;4.95;;
75504;SDS011;64085;54.974;73.410;2023-03-01T18:03:41;11.13;;;6.03;;
75504;SDS011;64085;54.974;73.410;2023-03-01T18:06:11;4.35;;;3.53;;
75504;SDS011;64085;54.974;73.410;2023-03-01T18:11:04;7.00;;;4.50;;
75504;SDS011;64085;54.974;73.410;2023-03-01T18:13:29;9.75;;;5.60;;
75504;SDS011;64085;54.974;73.410;2023-03-01T18:15:55;7.18;;;4.63;;
75504;SDS011;64085;54.974;73.410;2023-03-01T18:18:26;7.43;;;3.83;;
75504;SDS011;64085;54.974;73.410;2023-03-01T18:20:59;10.15;;;5.85;;
75504;SDS011;64085;54.974;73.410;2023-03-01T18:23:26;10.35;;;5.65;;
75504;SDS011;64085;54.974;73.410;2023-03-01T18:25:57;9.20;;;5.70;;
75504;SDS011;64085;54.974;73.410;2023-03-01T18:28:25;10.20;;;4.82;;
75504;SDS011;64085;54.974;73.410;2023-03-01T18:30:58;9.80;;;5.10;;
75504;SDS011;64085;54.974;73.410;2023-03-01T18:33:27;12.38;;;6.78;;
75504;SDS011;64085;54.974;73.410;2023-03-01T18:35:53;6.28;;;4.00;;
75504;SDS011;64085;54.974;73.410;2023-03-01T18:38:20;14.23;;;6.13;;
75504;SDS011;64085;54.974;73.410;2023-03-01T18:40:45;4.25;;;3.47;;
75504;SDS011;64085;54.974;73.410;2023-03-01T18:43:11;6.13;;;4.18;;
75504;SDS011;64085;54.974;73.410;2023-03-01T18:45:37;9.25;;;5.30;;
75504;SDS011;64085;54.974;73.410;2023-03-01T18:48:03;7.68;;;4.57;;
75504;SDS011;64085;54.974;73.410;2023-03-01T18:50:29;7.10;;;3.67;;
75504;SDS011;64085;54.974;73.410;2023-03-01T18:52:56;7.40;;;4.35;;
75504;SDS011;64085;54.974;73.410;2023-03-01T18:55:22;7.78;;;3.22;;
75504;SDS011;64085;54.974;73.410;2023-03-01T18:57:48;7.90;;;3.60;;
75504;SDS011;64085;54.974;73.410;2023-03-01T19:00:14;7.55;;;4.70;;
75504;SDS011;64085;54.974;73.410;2023-03-01T19:02:40;7.18;;;4.22;;
75504;SDS011;64085;54.974;73.410;2023-03-01T19:05:06;5.95;;;3.50;;
75504;SDS011;64085;54.974;73.410;2023-03-01T19:07:32;6.30;;;4.38;;
75504;SDS011;64085;54.974;73.410;2023-03-01T19:09:58;9.25;;;6.22;;
75504;SDS011;64085;54.974;73.410;2023-03-01T19:12:24;6.60;;;2.63;;
75504;SDS011;64085;54.974;73.410;2023-03-01T19:14:52;4.13;;;2.85;;
75504;SDS011;64085;54.974;73.410;2023-03-01T19:17:20;5.00;;;4.05;;
75504;SDS011;64085;54.974;73.410;2023-03-01T19:19:46;7.00;;;3.58;;
75504;SDS011;64085;54.974;73.410;2023-03-01T19:22:14;4.18;;;2.55;;
75504;SDS011;64085;54.974;73.410;2023-03-01T19:24:39;7.57;;;2.65;;
75504;SDS011;64085;54.974;73.410;2023-03-01T19:27:05;4.10;;;2.45;;
75504;SDS011;64085;54.974;73.410;2023-03-01T19:29:31;7.80;;;4.38;;
75504;SDS011;64085;54.974;73.410;2023-03-01T19:31:56;3.78;;;1.92;;
75504;SDS011;64085;54.974;73.410;2023-03-01T19:34:22;9.43;;;4.40;;
75504;SDS011;64085;54.974;73.410;2023-03-01T19:36:49;7.03;;;3.95;;
75504;SDS011;64085;54.974;73.410;2023-03-01T19:39:15;5.70;;;3.40;;
75504;SDS011;64085;54.974;73.410;2023-03-01T19:41:41;5.63;;;3.05;;
75504;SDS011;64085;54.974;73.410;2023-03-01T19:44:08;5.75;;;3.25;;
75504;SDS011;64085;54.974;73.410;2023-03-01T19:46:34;8.40;;;4.13;;
75504;SDS011;64085;54.974;73.410;2023-03-01T19:49:00;2.80;;;2.20;;
75504;SDS011;64085;54.974;73.410;2023-03-01T19:51:27;7.20;;;4.38;;
75504;SDS011;64085;54.974;73.410;2023-03-01T19:53:54;7.47;;;3.85;;
75504;SDS011;64085;54.974;73.410;2023-03-01T19:56:20;7.80;;;4.88;;
75504;SDS011;64085;54.974;73.410;2023-03-01T19:58:45;6.55;;;3.78;;
75504;SDS011;64085;54.974;73.410;2023-03-01T20:01:18;4.30;;;2.42;;
75504;SDS011;64085;54.974;73.410;2023-03-01T20:03:45;8.25;;;4.20;;
75504;SDS011;64085;54.974;73.410;2023-03-01T20:06:12;7.70;;;4.35;;
75504;SDS011;64085;54.974;73.410;2023-03-01T20:08:40;4.55;;;2.85;;
75504;SDS011;64085;54.974;73.410;2023-03-01T20:11:06;9.13;;;5.35;;
75504;SDS011;64085;54.974;73.410;2023-03-01T20:13:34;7.20;;;3.92;;
75504;SDS011;64085;54.974;73.410;2023-03-01T20:16:01;13.82;;;4.63;;
75504;SDS011;64085;54.974;73.410;2023-03-01T20:18:27;8.77;;;4.38;;
75504;SDS011;64085;54.974;73.410;2023-03-01T20:20:54;4.22;;;2.75;;
75504;SDS011;64085;54.974;73.410;2023-03-01T20:23:19;8.82;;;4.03;;
75504;SDS011;64085;54.974;73.410;2023-03-01T20:25:46;7.25;;;4.10;;
75504;SDS011;64085;54.974;73.410;2023-03-01T20:28:16;5.82;;;2.85;;
75504;SDS011;64085;54.974;73.410;2023-03-01T20:30:43;7.78;;;3.65;;
75504;SDS011;64085;54.974;73.410;2023-03-01T20:33:09;7.10;;;3.28;;
75504;SDS011;64085;54.974;73.410;2023-03-01T20:35:35;6.47;;;3.95;;
75504;SDS011;64085;54.974;73.410;2023-03-01T20:38:02;10.70;;;6.25;;
75504;SDS011;64085;54.974;73.410;2023-03-01T20:40:28;8.57;;;3.25;;
75504;SDS011;64085;54.974;73.410;2023-03-01T20:42:55;6.45;;;2.80;;
75504;SDS011;64085;54.974;73.410;2023-03-01T20:45:23;4.68;;;3.55;;
75504;SDS011;64085;54.974;73.410;2023-03-01T20:47:50;9.85;;;4.65;;
75504;SDS011;64085;54.974;73.410;2023-03-01T20:50:16;8.02;;;3.92;;
75504;SDS011;64085;54.974;73.410;2023-03-01T20:52:42;9.50;;;5.35;;
75504;SDS011;64085;54.974;73.410;2023-03-01T20:55:08;11.75;;;5.82;;
75504;SDS011;64085;54.974;73.410;2023-03-01T20:57:35;7.28;;;4.13;;
75504;SDS011;64085;54.974;73.410;2023-03-01T21:00:01;6.43;;;4.00;;
75504;SDS011;64085;54.974;73.410;2023-03-01T21:02:28;6.57;;;4.15;;
75504;SDS011;64085;54.974;73.410;2023-03-01T21:04:53;5.70;;;4.13;;
75504;SDS011;64085;54.974;73.410;2023-03-01T21:07:19;4.60;;;3.13;;
75504;SDS011;64085;54.974;73.410;2023-03-01T21:09:45;4.35;;;2.85;;
75504;SDS011;64085;54.974;73.410;2023-03-01T21:12:11;5.95;;;4.13;;
75504;SDS011;64085;54.974;73.410;2023-03-01T21:14:36;4.03;;;2.65;;
75504;SDS011;64085;54.974;73.410;2023-03-01T21:17:12;4.82;;;2.53;;
75504;SDS011;64085;54.974;73.410;2023-03-01T21:19:39;4.15;;;2.95;;
75504;SDS011;64085;54.974;73.410;2023-03-01T21:22:10;4.25;;;2.22;;
75504;SDS011;64085;54.974;73.410;2023-03-01T21:24:37;4.80;;;2.53;;
75504;SDS011;64085;54.974;73.410;2023-03-01T21:27:02;7.57;;;3.67;;
75504;SDS011;64085;54.974;73.410;2023-03-01T21:29:37;2.97;;;2.00;;
75504;SDS011;64085;54.974;73.410;2023-03-01T21:32:05;7.30;;;1.85;;
75504;SDS011;64085;54.974;73.410;2023-03-01T21:34:32;3.03;;;2.25;;
75504;SDS011;64085;54.974;73.410;2023-03-01T21:36:59;3.42;;;2.97;;
75504;SDS011;64085;54.974;73.410;2023-03-01T21:39:25;5.40;;;3.72;;
75504;SDS011;64085;54.974;73.410;2023-03-01T21:41:53;4.07;;;2.40;;
75504;SDS011;64085;54.974;73.410;2023-03-01T21:44:24;5.85;;;2.72;;
75504;SDS011;64085;54.974;73.410;2023-03-01T21:46:51;2.53;;;1.52;;
75504;SDS011;64085;54.974;73.410;2023-03-01T21:49:17;4.68;;;2.75;;
75504;SDS011;64085;54.974;73.410;2023-03-01T21:51:43;3.90;;;2.30;;
75504;SDS011;64085;54.974;73.410;2023-03-01T21:54:12;2.05;;;1.75;;
75504;SDS011;64085;54.974;73.410;2023-03-01T21:56:39;2.65;;;1.70;;
75504;SDS011;64085;54.974;73.410;2023-03-01T21:59:19;2.28;;;1.95;;
75504;SDS011;64085;54.974;73.410;2023-03-01T22:01:46;2.65;;;1.55;;
75504;SDS011;64085;54.974;73.410;2023-03-01T22:04:13;3.17;;;2.17;;
75504;SDS011;64085;54.974;73.410;2023-03-01T22:06:41;2.78;;;1.98;;
75504;SDS011;64085;54.974;73.410;2023-03-01T22:14:11;3.35;;;1.63;;
75504;SDS011;64085;54.974;73.410;2023-03-01T22:16:37;2.03;;;1.38;;
75504;SDS011;64085;54.974;73.410;2023-03-01T22:19:06;2.58;;;1.58;;
75504;SDS011;64085;54.974;73.410;2023-03-01T22:21:32;2.42;;;1.75;;
75504;SDS011;64085;54.974;73.410;2023-03-01T22:23:58;3.28;;;2.20;;
75504;SDS011;64085;54.974;73.410;2023-03-01T22:26:29;3.33;;;2.42;;
75504;SDS011;64085;54.974;73.410;2023-03-01T22:29:03;2.72;;;1.75;;
75504;SDS011;64085;54.974;73.410;2023-03-01T22:31:31;2.58;;;1.70;;
75504;SDS011;64085;54.974;73.410;2023-03-01T22:33:57;3.65;;;2.47;;
75504;SDS011;64085;54.974;73.410;2023-03-01T22:36:24;2.08;;;1.38;;
75504;SDS011;64085;54.974;73.410;2023-03-01T22:38:50;1.95;;;0.93;;
75504;SDS011;64085;54.974;73.410;2023-03-01T22:41:22;3.97;;;1.63;;
75504;SDS011;64085;54.974;73.410;2023-03-01T22:43:48;2.78;;;1.45;;
75504;SDS011;64085;54.974;73.410;2023-03-01T22:46:15;3.20;;;1.50;;
75504;SDS011;64085;54.974;73.410;2023-03-01T22:48:43;2.60;;;1.50;;
75504;SDS011;64085;54.974;73.410;2023-03-01T22:51:14;1.83;;;1.30;;
75504;SDS011;64085;54.974;73.410;2023-03-01T22:53:50;3.03;;;1.30;;
75504;SDS011;64085;54.974;73.410;2023-03-01T22:56:17;3.00;;;1.95;;
75504;SDS011;64085;54.974;73.410;2023-03-01T22:58:47;1.50;;;1.20;;
75504;SDS011;64085;54.974;73.410;2023-03-01T23:01:17;1.88;;;1.45;;
75504;SDS011;64085;54.974;73.410;2023-03-01T23:03:45;1.77;;;1.33;;
75504;SDS011;64085;54.974;73.410;2023-03-01T23:06:11;1.67;;;1.20;;
75504;SDS011;64085;54.974;73.410;2023-03-01T23:08:38;2.25;;;1.33;;
75504;SDS011;64085;54.974;73.410;2023-03-01T23:11:08;1.55;;;1.17;;
75504;SDS011;64085;54.974;73.410;2023-03-01T23:13:36;0.90;;;0.85;;
75504;SDS011;64085;54.974;73.410;2023-03-01T23:16:01;1.40;;;1.15;;
75504;SDS011;64085;54.974;73.410;2023-03-01T23:18:27;1.88;;;1.23;;
75504;SDS011;64085;54.974;73.410;2023-03-01T23:20:53;1.90;;;1.48;;
75504;SDS011;64085;54.974;73.410;2023-03-01T23:23:18;1.80;;;1.00;;
75504;SDS011;64085;54.974;73.410;2023-03-01T23:25:57;2.60;;;1.88;;
75504;SDS011;64085;54.974;73.410;2023-03-01T23:28:24;1.20;;;0.75;;
75504;SDS011;64085;54.974;73.410;2023-03-01T23:30:57;2.85;;;1.20;;
75504;SDS011;64085;54.974;73.410;2023-03-01T23:33:25;2.22;;;1.48;;
75504;SDS011;64085;54.974;73.410;2023-03-01T23:35:52;1.63;;;0.75;;
75504;SDS011;64085;54.974;73.410;2023-03-01T23:38:18;1.30;;;0.73;;
75504;SDS011;64085;54.974;73.410;2023-03-01T23:40:45;1.15;;;0.98;;
75504;SDS011;64085;54.974;73.410;2023-03-01T23:43:11;3.33;;;1.35;;
75504;SDS011;64085;54.974;73.410;2023-03-01T23:45:38;1.92;;;1.10;;
75504;SDS011;64085;54.974;73.410;2023-03-01T23:48:13;1.95;;;1.08;;
75504;SDS011;64085;54.974;73.410;2023-03-01T23:50:39;1.75;;;1.23;;
75504;SDS011;64085;54.974;73.410;2023-03-01T23:53:12;4.88;;;2.90;;
75504;SDS011;64085;54.974;73.410;2023-03-01T23:55:47;2.47;;;1.50;;
75504;SDS011;64085;54.974;73.410;2023-03-01T23:58:18;4.35;;;1.85;;
